sensor_id;sensor_type;location;lat;lon;timestamp;pressure;altitude;pressure_sealevel;temperature;humidity
52983;BME280;48698;45.736;13.926;2022-12-20T00:00:09;99070.84;;;-1.57;100.00
52983;BME280;48698;45.736;13.926;2022-12-20T00:05:20;99029.13;;;-1.59;100.00
52983;BME280;48698;45.736;13.926;2022-12-20T00:10:35;99024.31;;;-1.84;100.00
52983;BME280;48698;45.736;13.926;2022-12-20T00:15:39;99036.16;;;-1.54;100.00
52983;BME280;48698;45.736;13.926;2022-12-20T00:20:42;98958.84;;;-2.03;100.00
52983;BME280;48698;45.736;13.926;2022-12-20T00:25:46;98887.97;;;-2.77;100.00
52983;BME280;48698;45.736;13.926;2022-12-20T00:30:53;98962.50;;;-2.37;100.00
52983;BME280;48698;45.736;13.926;2022-12-20T00:35:57;99035.06;;;-1.67;100.00
52983;BME280;48698;45.736;13.926;2022-12-20T00:41:04;99036.56;;;-1.80;100.00
52983;BME280;48698;45.736;13.926;2022-12-20T00:46:10;98956.34;;;-2.42;100.00
52983;BME280;48698;45.736;13.926;2022-12-20T00:51:18;99040.78;;;-1.85;100.00
52983;BME280;48698;45.736;13.926;2022-12-20T00:56:32;99049.53;;;-1.83;100.00
52983;BME280;48698;45.736;13.926;2022-12-20T01:01:36;98945.53;;;-2.61;100.00
52983;BME280;48698;45.736;13.926;2022-12-20T01:06:39;99011.00;;;-1.99;100.00
52983;BME280;48698;45.736;13.926;2022-12-20T01:11:43;98951.44;;;-2.27;100.00
52983;BME280;48698;45.736;13.926;2022-12-20T01:16:46;98897.00;;;-2.60;100.00
52983;BME280;48698;45.736;13.926;2022-12-20T01:21:50;99013.34;;;-2.11;100.00
52983;BME280;48698;45.736;13.926;2022-12-20T01:26:53;98952.25;;;-2.30;100.00
52983;BME280;48698;45.736;13.926;2022-12-20T01:32:07;99019.53;;;-2.06;100.00
52983;BME280;48698;45.736;13.926;2022-12-20T01:37:20;98934.41;;;-2.53;100.00
52983;BME280;48698;45.736;13.926;2022-12-20T01:42:24;99009.13;;;-2.06;100.00
52983;BME280;48698;45.736;13.926;2022-12-20T01:47:31;98993.50;;;-2.06;100.00
52983;BME280;48698;45.736;13.926;2022-12-20T01:52:42;98983.53;;;-2.27;100.00
52983;BME280;48698;45.736;13.926;2022-12-20T01:57:56;98976.25;;;-2.43;100.00
52983;BME280;48698;45.736;13.926;2022-12-20T02:03:04;98883.09;;;-3.02;100.00
52983;BME280;48698;45.736;13.926;2022-12-20T02:08:09;99003.38;;;-1.88;100.00
52983;BME280;48698;45.736;13.926;2022-12-20T02:13:21;98956.88;;;-2.15;100.00
52983;BME280;48698;45.736;13.926;2022-12-20T02:18:34;98916.31;;;-2.47;100.00
52983;BME280;48698;45.736;13.926;2022-12-20T02:29:19;98978.88;;;-1.99;100.00
52983;BME280;48698;45.736;13.926;2022-12-20T02:34:29;98921.66;;;-2.41;100.00
52983;BME280;48698;45.736;13.926;2022-12-20T02:39:36;98913.50;;;-2.16;100.00
52983;BME280;48698;45.736;13.926;2022-12-20T02:45:05;98958.91;;;-2.00;100.00
52983;BME280;48698;45.736;13.926;2022-12-20T02:50:20;98956.19;;;-2.05;100.00
52983;BME280;48698;45.736;13.926;2022-12-20T02:55:32;98955.47;;;-1.99;100.00
52983;BME280;48698;45.736;13.926;2022-12-20T03:00:41;98849.53;;;-2.48;100.00
52983;BME280;48698;45.736;13.926;2022-12-20T03:05:46;98911.63;;;-2.23;100.00
52983;BME280;48698;45.736;13.926;2022-12-20T03:10:51;98943.78;;;-2.18;100.00
52983;BME280;48698;45.736;13.926;2022-12-20T03:15:54;98659.50;;;-3.92;100.00
52983;BME280;48698;45.736;13.926;2022-12-20T03:20:58;98913.66;;;-2.07;100.00
52983;BME280;48698;45.736;13.926;2022-12-20T03:26:10;98880.94;;;-2.39;100.00
52983;BME280;48698;45.736;13.926;2022-12-20T03:31:14;98932.25;;;-2.32;100.00
52983;BME280;48698;45.736;13.926;2022-12-20T03:36:18;98867.88;;;-2.42;100.00
52983;BME280;48698;45.736;13.926;2022-12-20T03:41:25;98926.41;;;-2.21;100.00
52983;BME280;48698;45.736;13.926;2022-12-20T03:46:29;98893.50;;;-2.62;100.00
52983;BME280;48698;45.736;13.926;2022-12-20T03:51:33;98827.28;;;-2.78;100.00
52983;BME280;48698;45.736;13.926;2022-12-20T03:56:37;98917.44;;;-2.35;100.00
52983;BME280;48698;45.736;13.926;2022-12-20T04:01:40;98832.31;;;-2.87;100.00
52983;BME280;48698;45.736;13.926;2022-12-20T04:06:44;98822.47;;;-3.01;100.00
52983;BME280;48698;45.736;13.926;2022-12-20T04:11:47;98862.94;;;-2.72;100.00
52983;BME280;48698;45.736;13.926;2022-12-20T04:16:58;98919.50;;;-2.19;100.00
52983;BME280;48698;45.736;13.926;2022-12-20T04:22:02;98876.13;;;-2.63;100.00
52983;BME280;48698;45.736;13.926;2022-12-20T04:27:07;98828.75;;;-2.90;100.00
52983;BME280;48698;45.736;13.926;2022-12-20T04:32:11;98662.34;;;-3.82;100.00
52983;BME280;48698;45.736;13.926;2022-12-20T04:37:15;98853.28;;;-2.34;100.00
52983;BME280;48698;45.736;13.926;2022-12-20T04:42:18;98781.03;;;-2.94;100.00
52983;BME280;48698;45.736;13.926;2022-12-20T04:47:22;98895.28;;;-2.59;100.00
52983;BME280;48698;45.736;13.926;2022-12-20T04:52:26;98893.78;;;-2.47;100.00
52983;BME280;48698;45.736;13.926;2022-12-20T04:58:00;98890.75;;;-2.25;100.00
52983;BME280;48698;45.736;13.926;2022-12-20T05:03:09;98881.56;;;-2.52;100.00
52983;BME280;48698;45.736;13.926;2022-12-20T05:08:13;98699.41;;;-3.48;100.00
52983;BME280;48698;45.736;13.926;2022-12-20T05:13:17;98679.94;;;-3.69;100.00
52983;BME280;48698;45.736;13.926;2022-12-20T05:18:21;98899.59;;;-2.15;100.00
52983;BME280;48698;45.736;13.926;2022-12-20T05:23:25;98774.50;;;-2.74;100.00
52983;BME280;48698;45.736;13.926;2022-12-20T05:28:47;98872.94;;;-2.03;100.00
52983;BME280;48698;45.736;13.926;2022-12-20T05:34:01;98862.41;;;-2.10;100.00
52983;BME280;48698;45.736;13.926;2022-12-20T05:39:04;98801.81;;;-2.50;100.00
52983;BME280;48698;45.736;13.926;2022-12-20T05:44:08;98877.06;;;-2.15;100.00
52983;BME280;48698;45.736;13.926;2022-12-20T05:49:12;98869.56;;;-1.98;100.00
52983;BME280;48698;45.736;13.926;2022-12-20T05:54:24;98873.03;;;-1.99;100.00
52983;BME280;48698;45.736;13.926;2022-12-20T05:59:29;98748.28;;;-2.86;100.00
52983;BME280;48698;45.736;13.926;2022-12-20T06:04:33;98777.94;;;-2.76;100.00
52983;BME280;48698;45.736;13.926;2022-12-20T06:09:37;98680.63;;;-3.35;100.00
52983;BME280;48698;45.736;13.926;2022-12-20T06:14:40;98744.13;;;-2.75;100.00
52983;BME280;48698;45.736;13.926;2022-12-20T06:19:44;98849.22;;;-2.20;100.00
52983;BME280;48698;45.736;13.926;2022-12-20T06:24:48;98852.94;;;-2.04;100.00
52983;BME280;48698;45.736;13.926;2022-12-20T06:29:51;98865.28;;;-1.96;100.00
52983;BME280;48698;45.736;13.926;2022-12-20T06:34:56;98834.03;;;-1.94;100.00
52983;BME280;48698;45.736;13.926;2022-12-20T06:40:12;98785.97;;;-2.16;100.00
52983;BME280;48698;45.736;13.926;2022-12-20T06:45:16;98841.25;;;-1.80;100.00
52983;BME280;48698;45.736;13.926;2022-12-20T06:50:21;98808.41;;;-1.69;100.00
52983;BME280;48698;45.736;13.926;2022-12-20T06:55:24;98745.34;;;-2.05;100.00
52983;BME280;48698;45.736;13.926;2022-12-20T07:00:28;98860.09;;;-1.39;100.00
52983;BME280;48698;45.736;13.926;2022-12-20T07:05:32;98834.81;;;-1.47;100.00
52983;BME280;48698;45.736;13.926;2022-12-20T07:10:36;98849.75;;;-1.34;100.00
52983;BME280;48698;45.736;13.926;2022-12-20T07:15:40;98882.34;;;-1.05;100.00
52983;BME280;48698;45.736;13.926;2022-12-20T07:20:45;98763.56;;;-1.49;100.00
52983;BME280;48698;45.736;13.926;2022-12-20T07:25:56;98861.75;;;-0.87;100.00
52983;BME280;48698;45.736;13.926;2022-12-20T07:31:01;98846.97;;;-0.86;100.00
52983;BME280;48698;45.736;13.926;2022-12-20T07:36:07;98845.38;;;-0.74;100.00
52983;BME280;48698;45.736;13.926;2022-12-20T07:41:14;98876.13;;;-0.50;100.00
52983;BME280;48698;45.736;13.926;2022-12-20T07:46:18;98785.16;;;-0.92;100.00
52983;BME280;48698;45.736;13.926;2022-12-20T07:51:25;98843.16;;;-0.42;100.00
52983;BME280;48698;45.736;13.926;2022-12-20T07:56:32;98859.09;;;-0.15;100.00
52983;BME280;48698;45.736;13.926;2022-12-20T08:01:43;98851.13;;;-0.28;100.00
52983;BME280;48698;45.736;13.926;2022-12-20T08:06:48;98860.13;;;-0.01;100.00
52983;BME280;48698;45.736;13.926;2022-12-20T08:11:52;98829.47;;;-0.18;100.00
52983;BME280;48698;45.736;13.926;2022-12-20T08:16:56;98868.09;;;0.13;100.00
52983;BME280;48698;45.736;13.926;2022-12-20T08:22:01;98881.31;;;0.30;100.00
52983;BME280;48698;45.736;13.926;2022-12-20T08:27:04;98883.16;;;0.41;100.00
52983;BME280;48698;45.736;13.926;2022-12-20T08:32:08;98866.50;;;0.29;100.00
52983;BME280;48698;45.736;13.926;2022-12-20T08:37:15;98798.38;;;0.06;100.00
52983;BME280;48698;45.736;13.926;2022-12-20T08:42:18;98880.63;;;0.53;100.00
52983;BME280;48698;45.736;13.926;2022-12-20T08:47:22;98833.47;;;0.38;100.00
52983;BME280;48698;45.736;13.926;2022-12-20T08:52:27;98865.97;;;0.72;100.00
52983;BME280;48698;45.736;13.926;2022-12-20T08:57:31;98867.84;;;0.93;100.00
52983;BME280;48698;45.736;13.926;2022-12-20T09:02:34;98875.75;;;1.00;100.00
52983;BME280;48698;45.736;13.926;2022-12-20T09:07:40;98867.91;;;1.02;100.00
52983;BME280;48698;45.736;13.926;2022-12-20T09:12:43;98762.94;;;0.44;100.00
52983;BME280;48698;45.736;13.926;2022-12-20T09:17:47;98872.38;;;1.24;100.00
52983;BME280;48698;45.736;13.926;2022-12-20T09:22:50;98763.03;;;0.58;100.00
52983;BME280;48698;45.736;13.926;2022-12-20T09:27:54;98815.53;;;0.91;100.00
52983;BME280;48698;45.736;13.926;2022-12-20T09:32:58;98808.56;;;0.93;100.00
52983;BME280;48698;45.736;13.926;2022-12-20T09:38:12;98862.78;;;1.23;100.00
52983;BME280;48698;45.736;13.926;2022-12-20T09:43:17;98750.06;;;0.76;100.00
52983;BME280;48698;45.736;13.926;2022-12-20T09:48:23;98765.03;;;1.04;100.00
52983;BME280;48698;45.736;13.926;2022-12-20T09:59:19;98808.88;;;1.75;100.00
52983;BME280;48698;45.736;13.926;2022-12-20T10:04:33;98830.75;;;1.95;100.00
52983;BME280;48698;45.736;13.926;2022-12-20T10:20:08;98816.78;;;2.12;100.00
52983;BME280;48698;45.736;13.926;2022-12-20T10:25:22;98816.78;;;2.22;100.00
52983;BME280;48698;45.736;13.926;2022-12-20T10:30:27;98815.94;;;2.38;100.00
52983;BME280;48698;45.736;13.926;2022-12-20T10:35:39;98793.19;;;2.39;100.00
52983;BME280;48698;45.736;13.926;2022-12-20T10:41:00;98786.22;;;2.41;100.00
52983;BME280;48698;45.736;13.926;2022-12-20T10:46:35;98767.84;;;2.39;100.00
52983;BME280;48698;45.736;13.926;2022-12-20T10:51:40;98767.84;;;2.54;100.00
52983;BME280;48698;45.736;13.926;2022-12-20T10:56:59;98746.00;;;2.58;100.00
52983;BME280;48698;45.736;13.926;2022-12-20T11:02:31;98757.25;;;2.91;100.00
52983;BME280;48698;45.736;13.926;2022-12-20T11:08:06;98752.00;;;2.91;100.00
52983;BME280;48698;45.736;13.926;2022-12-20T11:13:30;98748.44;;;3.07;100.00
52983;BME280;48698;45.736;13.926;2022-12-20T11:18:50;98679.50;;;2.69;100.00
52983;BME280;48698;45.736;13.926;2022-12-20T11:24:09;98736.16;;;3.12;100.00
52983;BME280;48698;45.736;13.926;2022-12-20T11:34:50;98728.34;;;2.98;100.00
52983;BME280;48698;45.736;13.926;2022-12-20T11:40:29;98722.25;;;2.98;100.00
52983;BME280;48698;45.736;13.926;2022-12-20T11:45:42;98716.94;;;3.13;100.00
52983;BME280;48698;45.736;13.926;2022-12-20T11:51:29;98539.94;;;1.98;100.00
52983;BME280;48698;45.736;13.926;2022-12-20T11:56:38;98702.94;;;3.11;100.00
52983;BME280;48698;45.736;13.926;2022-12-20T12:01:55;98627.03;;;2.73;100.00
52983;BME280;48698;45.736;13.926;2022-12-20T12:07:11;98620.03;;;2.78;100.00
52983;BME280;48698;45.736;13.926;2022-12-20T12:12:37;98667.97;;;3.07;100.00
52983;BME280;48698;45.736;13.926;2022-12-20T12:23:02;98608.47;;;3.08;100.00
52983;BME280;48698;45.736;13.926;2022-12-20T12:28:11;98631.16;;;3.17;100.00
52983;BME280;48698;45.736;13.926;2022-12-20T12:33:21;98662.50;;;3.39;100.00
52983;BME280;48698;45.736;13.926;2022-12-20T12:38:48;98590.16;;;2.97;100.00
52983;BME280;48698;45.736;13.926;2022-12-20T12:49:23;98590.09;;;3.11;100.00
52983;BME280;48698;45.736;13.926;2022-12-20T12:54:39;98653.69;;;3.51;100.00
52983;BME280;48698;45.736;13.926;2022-12-20T12:59:45;98569.22;;;2.85;100.00
52983;BME280;48698;45.736;13.926;2022-12-20T13:20:27;98581.25;;;3.20;100.00
52983;BME280;48698;45.736;13.926;2022-12-20T13:25:32;98543.72;;;3.10;100.00
52983;BME280;48698;45.736;13.926;2022-12-20T13:41:30;98636.88;;;3.72;100.00
52983;BME280;48698;45.736;13.926;2022-12-20T13:46:50;98607.25;;;3.51;100.00
52983;BME280;48698;45.736;13.926;2022-12-20T13:57:13;98636.03;;;3.71;100.00
52983;BME280;48698;45.736;13.926;2022-12-20T14:02:21;98624.66;;;3.66;100.00
52983;BME280;48698;45.736;13.926;2022-12-20T14:07:29;98602.06;;;3.45;100.00
52983;BME280;48698;45.736;13.926;2022-12-20T14:12:33;98386.00;;;2.38;100.00
52983;BME280;48698;45.736;13.926;2022-12-20T14:17:38;98564.53;;;3.33;100.00
52983;BME280;48698;45.736;13.926;2022-12-20T14:23:08;98612.31;;;3.76;100.00
52983;BME280;48698;45.736;13.926;2022-12-20T14:28:24;98566.13;;;3.52;100.00
52983;BME280;48698;45.736;13.926;2022-12-20T14:33:40;98550.31;;;3.59;100.00
52983;BME280;48698;45.736;13.926;2022-12-20T14:38:49;98533.75;;;3.48;100.00
52983;BME280;48698;45.736;13.926;2022-12-20T14:43:55;98523.50;;;3.24;100.00
52983;BME280;48698;45.736;13.926;2022-12-20T14:49:27;98607.16;;;3.67;100.00
52983;BME280;48698;45.736;13.926;2022-12-20T14:54:42;98474.75;;;2.93;100.00
52983;BME280;48698;45.736;13.926;2022-12-20T15:00:21;98606.31;;;3.64;100.00
52983;BME280;48698;45.736;13.926;2022-12-20T15:10:46;98486.91;;;3.04;100.00
52983;BME280;48698;45.736;13.926;2022-12-20T15:15:51;98417.19;;;2.75;100.00
52983;BME280;48698;45.736;13.926;2022-12-20T15:21:34;98592.94;;;3.89;100.00
52983;BME280;48698;45.736;13.926;2022-12-20T15:26:39;98485.00;;;3.19;100.00
52983;BME280;48698;45.736;13.926;2022-12-20T15:31:43;98576.38;;;3.79;100.00
52983;BME280;48698;45.736;13.926;2022-12-20T15:36:48;98459.72;;;3.08;100.00
52983;BME280;48698;45.736;13.926;2022-12-20T15:41:53;98551.28;;;3.49;100.00
52983;BME280;48698;45.736;13.926;2022-12-20T15:46:57;98353.59;;;2.48;100.00
52983;BME280;48698;45.736;13.926;2022-12-20T15:52:01;98351.88;;;2.43;100.00
52983;BME280;48698;45.736;13.926;2022-12-20T15:57:05;98470.97;;;3.27;100.00
52983;BME280;48698;45.736;13.926;2022-12-20T16:02:24;98583.31;;;3.85;100.00
52983;BME280;48698;45.736;13.926;2022-12-20T16:07:29;98585.09;;;3.86;100.00
52983;BME280;48698;45.736;13.926;2022-12-20T16:12:34;98484.94;;;3.31;100.00
52983;BME280;48698;45.736;13.926;2022-12-20T16:17:38;98580.75;;;3.80;100.00
52983;BME280;48698;45.736;13.926;2022-12-20T16:22:42;98586.06;;;3.77;100.00
52983;BME280;48698;45.736;13.926;2022-12-20T16:27:45;98593.81;;;3.89;100.00
52983;BME280;48698;45.736;13.926;2022-12-20T16:32:50;98583.31;;;3.88;100.00
52983;BME280;48698;45.736;13.926;2022-12-20T16:37:55;98345.59;;;2.59;100.00
52983;BME280;48698;45.736;13.926;2022-12-20T16:42:59;98601.63;;;3.97;100.00
52983;BME280;48698;45.736;13.926;2022-12-20T16:48:11;98438.91;;;2.90;100.00
52983;BME280;48698;45.736;13.926;2022-12-20T16:53:15;98579.75;;;3.92;100.00
52983;BME280;48698;45.736;13.926;2022-12-20T16:58:18;98576.41;;;3.78;100.00
52983;BME280;48698;45.736;13.926;2022-12-20T17:03:22;98517.94;;;3.56;100.00
52983;BME280;48698;45.736;13.926;2022-12-20T17:08:27;98590.16;;;4.04;100.00
52983;BME280;48698;45.736;13.926;2022-12-20T17:13:52;98601.53;;;4.07;100.00
52983;BME280;48698;45.736;13.926;2022-12-20T17:18:56;98424.75;;;3.11;100.00
52983;BME280;48698;45.736;13.926;2022-12-20T17:24:03;98581.38;;;4.05;100.00
52983;BME280;48698;45.736;13.926;2022-12-20T17:29:09;98598.91;;;4.06;100.00
52983;BME280;48698;45.736;13.926;2022-12-20T17:34:24;98564.97;;;3.83;100.00
52983;BME280;48698;45.736;13.926;2022-12-20T17:39:28;98487.47;;;3.41;100.00
52983;BME280;48698;45.736;13.926;2022-12-20T17:44:32;98388.31;;;2.78;100.00
52983;BME280;48698;45.736;13.926;2022-12-20T17:49:35;98591.81;;;4.11;100.00
52983;BME280;48698;45.736;13.926;2022-12-20T17:54:38;98478.63;;;3.45;100.00
52983;BME280;48698;45.736;13.926;2022-12-20T17:59:42;98589.19;;;4.11;100.00
52983;BME280;48698;45.736;13.926;2022-12-20T18:04:48;98602.16;;;4.29;100.00
52983;BME280;48698;45.736;13.926;2022-12-20T18:09:53;98595.06;;;4.37;100.00
52983;BME280;48698;45.736;13.926;2022-12-20T18:14:56;98483.66;;;3.70;100.00
52983;BME280;48698;45.736;13.926;2022-12-20T18:20:00;98455.84;;;3.50;100.00
52983;BME280;48698;45.736;13.926;2022-12-20T18:25:04;98511.53;;;3.84;100.00
52983;BME280;48698;45.736;13.926;2022-12-20T18:30:11;98522.75;;;3.98;100.00
52983;BME280;48698;45.736;13.926;2022-12-20T18:35:15;98467.06;;;3.66;100.00
52983;BME280;48698;45.736;13.926;2022-12-20T18:40:19;98433.13;;;3.45;100.00
52983;BME280;48698;45.736;13.926;2022-12-20T18:45:27;98374.00;;;3.09;100.00
52983;BME280;48698;45.736;13.926;2022-12-20T18:50:34;98563.69;;;4.21;100.00
52983;BME280;48698;45.736;13.926;2022-12-20T18:55:38;98377.63;;;2.96;100.00
52983;BME280;48698;45.736;13.926;2022-12-20T19:00:43;98517.66;;;3.83;100.00
52983;BME280;48698;45.736;13.926;2022-12-20T19:05:50;98468.75;;;3.72;100.00
52983;BME280;48698;45.736;13.926;2022-12-20T19:10:59;98580.13;;;4.38;100.00
52983;BME280;48698;45.736;13.926;2022-12-20T19:16:06;98349.44;;;3.18;100.00
52983;BME280;48698;45.736;13.926;2022-12-20T19:21:21;98529.59;;;4.11;100.00
52983;BME280;48698;45.736;13.926;2022-12-20T19:26:27;98533.03;;;4.20;100.00
52983;BME280;48698;45.736;13.926;2022-12-20T19:31:32;98313.88;;;2.88;100.00
52983;BME280;48698;45.736;13.926;2022-12-20T19:36:41;98486.94;;;3.88;100.00
52983;BME280;48698;45.736;13.926;2022-12-20T19:41:45;98496.50;;;3.97;100.00
52983;BME280;48698;45.736;13.926;2022-12-20T19:47:09;98542.59;;;4.25;100.00
52983;BME280;48698;45.736;13.926;2022-12-20T19:52:12;98485.13;;;3.95;100.00
52983;BME280;48698;45.736;13.926;2022-12-20T19:57:17;98427.69;;;3.63;100.00
52983;BME280;48698;45.736;13.926;2022-12-20T20:02:20;98506.09;;;3.99;100.00
52983;BME280;48698;45.736;13.926;2022-12-20T20:07:24;98532.94;;;4.26;100.00
52983;BME280;48698;45.736;13.926;2022-12-20T20:12:28;98479.97;;;3.86;100.00
52983;BME280;48698;45.736;13.926;2022-12-20T20:17:32;98420.69;;;3.62;100.00
52983;BME280;48698;45.736;13.926;2022-12-20T20:22:45;98467.66;;;3.91;100.00
52983;BME280;48698;45.736;13.926;2022-12-20T20:27:49;98458.03;;;3.88;100.00
52983;BME280;48698;45.736;13.926;2022-12-20T20:32:52;98503.38;;;4.07;100.00
52983;BME280;48698;45.736;13.926;2022-12-20T20:37:56;98439.78;;;3.78;100.00
52983;BME280;48698;45.736;13.926;2022-12-20T20:43:06;98443.25;;;3.80;100.00
52983;BME280;48698;45.736;13.926;2022-12-20T20:48:10;98510.00;;;4.38;100.00
52983;BME280;48698;45.736;13.926;2022-12-20T20:53:13;98510.13;;;4.28;100.00
52983;BME280;48698;45.736;13.926;2022-12-20T20:58:17;98464.16;;;3.89;100.00
52983;BME280;48698;45.736;13.926;2022-12-20T21:03:20;98382.28;;;3.52;100.00
52983;BME280;48698;45.736;13.926;2022-12-20T21:08:24;98422.28;;;3.75;100.00
52983;BME280;48698;45.736;13.926;2022-12-20T21:13:27;98464.84;;;4.04;100.00
52983;BME280;48698;45.736;13.926;2022-12-20T21:18:36;98352.72;;;3.36;100.00
52983;BME280;48698;45.736;13.926;2022-12-20T21:23:43;98440.56;;;3.87;100.00
52983;BME280;48698;45.736;13.926;2022-12-20T21:28:48;98485.75;;;4.16;100.00
52983;BME280;48698;45.736;13.926;2022-12-20T21:33:53;98494.25;;;4.37;100.00
52983;BME280;48698;45.736;13.926;2022-12-20T21:38:57;98489.09;;;4.28;100.00
52983;BME280;48698;45.736;13.926;2022-12-20T21:44:00;98452.41;;;4.18;100.00
52983;BME280;48698;45.736;13.926;2022-12-20T21:49:04;98398.59;;;3.80;100.00
52983;BME280;48698;45.736;13.926;2022-12-20T21:54:08;98478.44;;;4.38;100.00
52983;BME280;48698;45.736;13.926;2022-12-20T21:59:11;98436.88;;;3.99;100.00
52983;BME280;48698;45.736;13.926;2022-12-20T22:04:19;98391.63;;;3.76;100.00
52983;BME280;48698;45.736;13.926;2022-12-20T22:09:22;98464.56;;;4.27;100.00
52983;BME280;48698;45.736;13.926;2022-12-20T22:14:37;98438.34;;;4.23;100.00
52983;BME280;48698;45.736;13.926;2022-12-20T22:19:40;98387.00;;;3.96;100.00
52983;BME280;48698;45.736;13.926;2022-12-20T22:24:44;98378.38;;;3.88;100.00
52983;BME280;48698;45.736;13.926;2022-12-20T22:29:48;98347.13;;;3.62;100.00
52983;BME280;48698;45.736;13.926;2022-12-20T22:34:52;98399.06;;;4.10;100.00
52983;BME280;48698;45.736;13.926;2022-12-20T22:39:55;98426.91;;;4.27;100.00
52983;BME280;48698;45.736;13.926;2022-12-20T22:44:59;98387.81;;;3.99;100.00
52983;BME280;48698;45.736;13.926;2022-12-20T22:50:03;98426.06;;;4.22;100.00
52983;BME280;48698;45.736;13.926;2022-12-20T22:55:17;98258.38;;;3.23;100.00
52983;BME280;48698;45.736;13.926;2022-12-20T23:00:20;98234.81;;;3.17;100.00
52983;BME280;48698;45.736;13.926;2022-12-20T23:05:24;98386.75;;;4.14;100.00
52983;BME280;48698;45.736;13.926;2022-12-20T23:10:27;98326.66;;;3.88;100.00
52983;BME280;48698;45.736;13.926;2022-12-20T23:15:50;98397.09;;;4.26;100.00
52983;BME280;48698;45.736;13.926;2022-12-20T23:20:53;98360.56;;;4.06;100.00
52983;BME280;48698;45.736;13.926;2022-12-20T23:26:16;98393.50;;;4.33;100.00
52983;BME280;48698;45.736;13.926;2022-12-20T23:31:30;98392.50;;;4.40;100.00
52983;BME280;48698;45.736;13.926;2022-12-20T23:36:35;98384.56;;;4.43;100.00
52983;BME280;48698;45.736;13.926;2022-12-20T23:41:39;98300.31;;;3.91;100.00
52983;BME280;48698;45.736;13.926;2022-12-20T23:46:42;98356.84;;;4.21;100.00
52983;BME280;48698;45.736;13.926;2022-12-20T23:51:46;98218.63;;;3.48;100.00
52983;BME280;48698;45.736;13.926;2022-12-20T23:56:50;98356.44;;;4.48;100.00
